Time;durP1;ratioP1;P1;durP2;ratioP2;P2;SDS_P1;SDS_P2;PMS_P1;PMS_P2;Temp;Humidity;BMP_temperature;BMP_pressure;BME280_temperature;BME280_humidity;BME280_pressure;Samples;Min_cycle;Max_cycle;Signal;HPM_P1;HPM_P2
2022/11/26 00:00:24;;;;;;;13.50;4.67;;;;;;;;;;4990468;28;20235;-72
2022/11/26 00:02:50;;;;;;;16.13;5.27;;;;;;;;;;4990948;28;20630;-72
2022/11/26 00:05:15;;;;;;;14.87;5.10;;;;;;;;;;4991312;28;20179;-73
2022/11/26 00:07:43;;;;;;;12.93;5.40;;;;;;;;;;4972088;28;20540;-71
2022/11/26 00:10:14;;;;;;;19.13;8.27;;;;;;;;;;4991147;28;20226;-72
2022/11/26 00:12:40;;;;;;;21.77;6.47;;;;;;;;;;4990977;28;20270;-72
2022/11/26 00:15:13;;;;;;;17.87;6.23;;;;;;;;;;4993758;28;20279;-72
2022/11/26 00:17:38;;;;;;;18.07;6.10;;;;;;;;;;4992732;28;20266;-72
2022/11/26 00:20:04;;;;;;;14.37;5.47;;;;;;;;;;4994652;28;20278;-73
2022/11/26 00:22:30;;;;;;;12.57;5.70;;;;;;;;;;4992356;28;20677;-72
2022/11/26 00:24:56;;;;;;;14.43;6.07;;;;;;;;;;4979853;28;20180;-72
2022/11/26 00:27:23;;;;;;;12.73;5.70;;;;;;;;;;4992248;28;20203;-72
2022/11/26 00:29:48;;;;;;;16.57;5.83;;;;;;;;;;4994364;28;20207;-73
2022/11/26 00:32:15;;;;;;;17.93;5.43;;;;;;;;;;4976424;28;20182;-73
2022/11/26 00:34:40;;;;;;;11.73;4.67;;;;;;;;;;4991579;28;20176;-73
2022/11/26 00:37:08;;;;;;;13.40;4.20;;;;;;;;;;4992353;28;20581;-72
2022/11/26 00:39:33;;;;;;;12.17;5.50;;;;;;;;;;4993749;28;20673;-73
2022/11/26 00:41:58;;;;;;;9.63;4.53;;;;;;;;;;4995739;28;20226;-73
2022/11/26 00:44:24;;;;;;;13.07;5.13;;;;;;;;;;4992441;28;20190;-72
2022/11/26 00:46:49;;;;;;;11.90;4.57;;;;;;;;;;4975622;28;20666;-73
2022/11/26 00:49:15;;;;;;;9.97;4.83;;;;;;;;;;4995715;28;20255;-72
2022/11/26 00:51:41;;;;;;;14.10;6.00;;;;;;;;;;4994275;28;20187;-72
2022/11/26 00:54:08;;;;;;;16.30;5.47;;;;;;;;;;4993768;28;20274;-73
2022/11/26 00:56:34;;;;;;;10.77;4.80;;;;;;;;;;4991450;28;20192;-72
2022/11/26 00:58:59;;;;;;;12.17;5.37;;;;;;;;;;4998647;28;20184;-72
2022/11/26 01:01:27;;;;;;;12.93;5.60;;;;;;;;;;4993191;28;20208;-73
2022/11/26 01:03:52;;;;;;;21.17;8.67;;;;;;;;;;4993571;28;20520;-72
2022/11/26 01:06:19;;;;;;;13.87;5.80;;;;;;;;;;4988027;28;20230;-72
2022/11/26 01:08:44;;;;;;;15.00;6.77;;;;;;;;;;4977019;28;20263;-72
2022/11/26 01:11:15;;;;;;;22.80;7.07;;;;;;;;;;4976076;28;20669;-73
2022/11/26 01:13:41;;;;;;;17.13;6.93;;;;;;;;;;4976638;28;20192;-72
2022/11/26 01:16:25;;;;;;;18.60;6.00;;;;;;;;;;4993899;28;20250;-73
2022/11/26 01:18:52;;;;;;;22.47;6.90;;;;;;;;;;4997206;28;20245;-73
2022/11/26 01:21:18;;;;;;;10.87;6.93;;;;;;;;;;4994744;28;20223;-72
2022/11/26 01:23:43;;;;;;;24.60;8.60;;;;;;;;;;4992747;28;20619;-72
2022/11/26 01:26:16;;;;;;;19.80;6.70;;;;;;;;;;4996741;28;20184;-72
2022/11/26 01:28:41;;;;;;;17.80;7.07;;;;;;;;;;4996792;28;20176;-72
2022/11/26 01:31:12;;;;;;;21.27;6.67;;;;;;;;;;4985096;28;20224;-73
2022/11/26 01:33:37;;;;;;;14.17;6.63;;;;;;;;;;4989434;28;20198;-72
2022/11/26 01:36:02;;;;;;;13.00;6.20;;;;;;;;;;4975006;28;20657;-73
2022/11/26 01:38:27;;;;;;;19.40;7.43;;;;;;;;;;4992540;28;20199;-73
2022/11/26 01:40:53;;;;;;;11.90;5.97;;;;;;;;;;4986217;28;20211;-72
2022/11/26 01:43:25;;;;;;;14.00;6.17;;;;;;;;;;4988916;28;20184;-72
2022/11/26 01:45:50;;;;;;;17.37;6.20;;;;;;;;;;4975931;28;20645;-72
2022/11/26 01:48:24;;;;;;;14.60;6.90;;;;;;;;;;4988059;28;20222;-72
2022/11/26 01:51:09;;;;;;;15.30;8.30;;;;;;;;;;4989049;28;20261;-73
2022/11/26 01:53:41;;;;;;;26.10;8.47;;;;;;;;;;4991277;28;20250;-72
2022/11/26 01:56:15;;;;;;;15.03;7.60;;;;;;;;;;4991367;28;20265;-72
2022/11/26 01:58:43;;;;;;;21.23;6.97;;;;;;;;;;4990043;28;20178;-72
2022/11/26 02:01:08;;;;;;;18.07;8.07;;;;;;;;;;4992143;28;20566;-72
2022/11/26 02:03:38;;;;;;;23.17;8.87;;;;;;;;;;4991439;28;20186;-72
2022/11/26 02:06:05;;;;;;;16.77;8.20;;;;;;;;;;4990820;28;20184;-72
2022/11/26 02:08:32;;;;;;;16.90;8.00;;;;;;;;;;4991947;28;20180;-72
2022/11/26 02:10:57;;;;;;;19.97;7.83;;;;;;;;;;4992441;28;20661;-72
2022/11/26 02:13:23;;;;;;;18.17;7.30;;;;;;;;;;4991475;28;20241;-72
2022/11/26 02:15:59;;;;;;;20.90;7.23;;;;;;;;;;4992307;28;20274;-73
2022/11/26 02:18:27;;;;;;;20.43;7.47;;;;;;;;;;4995782;28;20184;-72
2022/11/26 02:21:02;;;;;;;17.73;7.30;;;;;;;;;;4987448;28;20805;-72
2022/11/26 02:23:33;;;;;;;17.13;7.77;;;;;;;;;;4989928;28;20266;-73
2022/11/26 02:26:12;;;;;;;18.97;8.37;;;;;;;;;;4992106;28;20207;-72
2022/11/26 02:28:40;;;;;;;16.93;6.90;;;;;;;;;;4989532;28;20661;-72
2022/11/26 02:31:15;;;;;;;17.50;8.00;;;;;;;;;;4976436;28;20585;-72
2022/11/26 02:33:52;;;;;;;22.80;7.87;;;;;;;;;;4973031;28;20179;-73
2022/11/26 02:36:31;;;;;;;15.97;7.47;;;;;;;;;;4997171;28;20183;-72
2022/11/26 02:38:56;;;;;;;26.93;8.40;;;;;;;;;;4993044;28;20622;-73
2022/11/26 02:41:21;;;;;;;21.43;8.43;;;;;;;;;;4997202;28;20305;-73
2022/11/26 02:43:47;;;;;;;23.67;8.97;;;;;;;;;;4972463;28;20178;-73
2022/11/26 02:46:15;;;;;;;21.37;9.23;;;;;;;;;;4976429;28;20315;-72
2022/11/26 02:48:43;;;;;;;20.27;9.30;;;;;;;;;;4990724;28;20234;-73
2022/11/26 02:51:20;;;;;;;20.87;9.30;;;;;;;;;;4984890;28;20296;-72
2022/11/26 02:53:46;;;;;;;18.90;9.20;;;;;;;;;;4986828;28;20193;-73
2022/11/26 02:56:13;;;;;;;26.87;9.97;;;;;;;;;;4976883;28;20266;-73
2022/11/26 02:58:39;;;;;;;22.20;10.20;;;;;;;;;;4992301;28;20188;-72
2022/11/26 03:01:08;;;;;;;22.20;10.03;;;;;;;;;;4996541;28;20238;-73
2022/11/26 03:03:39;;;;;;;35.50;10.60;;;;;;;;;;4998350;28;20194;-73
2022/11/26 03:06:07;;;;;;;26.43;11.10;;;;;;;;;;4995026;28;20303;-74
2022/11/26 03:08:32;;;;;;;26.13;10.93;;;;;;;;;;4982921;28;20204;-73
2022/11/26 03:10:57;;;;;;;19.13;9.13;;;;;;;;;;4991405;28;20235;-73
2022/11/26 03:13:23;;;;;;;27.93;10.10;;;;;;;;;;4990955;28;20274;-73
2022/11/26 03:15:48;;;;;;;25.23;10.57;;;;;;;;;;4991724;28;20176;-73
2022/11/26 03:18:13;;;;;;;20.43;9.53;;;;;;;;;;4991627;28;20184;-73
2022/11/26 03:20:38;;;;;;;23.10;9.57;;;;;;;;;;4991363;28;20211;-73
2022/11/26 03:23:03;;;;;;;20.90;8.77;;;;;;;;;;4991692;28;20619;-73
2022/11/26 03:25:29;;;;;;;22.63;9.57;;;;;;;;;;4991561;28;20726;-72
2022/11/26 03:27:54;;;;;;;23.03;9.43;;;;;;;;;;4984977;28;20534;-72
2022/11/26 03:30:19;;;;;;;20.00;9.57;;;;;;;;;;4994186;23;20723;-80
2022/11/26 03:32:44;;;;;;;27.53;10.80;;;;;;;;;;5017237;28;20217;-80
2022/11/26 03:35:09;;;;;;;27.77;10.03;;;;;;;;;;5014949;28;20211;-80
2022/11/26 03:37:35;;;;;;;26.70;9.53;;;;;;;;;;5017823;28;20210;-79
2022/11/26 03:40:00;;;;;;;28.53;10.97;;;;;;;;;;5013159;28;20200;-80
2022/11/26 03:42:25;;;;;;;22.17;9.97;;;;;;;;;;4998998;28;20199;-80
2022/11/26 03:44:51;;;;;;;29.03;9.53;;;;;;;;;;4991774;28;20550;-80
2022/11/26 03:47:16;;;;;;;23.13;9.90;;;;;;;;;;5002826;28;20235;-79
2022/11/26 03:49:41;;;;;;;21.57;9.73;;;;;;;;;;5005508;28;20168;-80
2022/11/26 03:52:06;;;;;;;25.53;9.27;;;;;;;;;;5002084;28;20594;-80
2022/11/26 03:54:31;;;;;;;18.60;9.37;;;;;;;;;;5009387;28;20179;-80
2022/11/26 03:56:57;;;;;;;22.80;10.63;;;;;;;;;;5004372;28;20191;-80
2022/11/26 03:59:22;;;;;;;22.97;8.73;;;;;;;;;;4994153;28;20191;-81
2022/11/26 04:01:47;;;;;;;20.50;9.63;;;;;;;;;;4993490;28;20207;-81
2022/11/26 04:04:12;;;;;;;23.40;9.30;;;;;;;;;;5000515;28;20175;-80
2022/11/26 04:06:37;;;;;;;23.13;10.67;;;;;;;;;;5003401;28;20665;-80
2022/11/26 04:09:03;;;;;;;29.43;10.90;;;;;;;;;;5004936;28;20187;-80
2022/11/26 04:11:28;;;;;;;23.63;10.83;;;;;;;;;;4989777;28;20202;-80
2022/11/26 04:13:53;;;;;;;25.73;9.83;;;;;;;;;;5006123;28;20653;-80
2022/11/26 04:16:19;;;;;;;25.70;9.13;;;;;;;;;;4991854;28;20183;-80
2022/11/26 04:18:44;;;;;;;19.43;9.47;;;;;;;;;;4996008;28;20657;-80
2022/11/26 04:21:10;;;;;;;22.00;9.90;;;;;;;;;;5007040;28;20206;-80
2022/11/26 04:23:35;;;;;;;21.57;10.03;;;;;;;;;;4988714;28;20663;-80
2022/11/26 04:26:01;;;;;;;29.90;9.90;;;;;;;;;;4996482;28;20179;-80
2022/11/26 04:28:26;;;;;;;29.73;10.57;;;;;;;;;;5002588;28;20179;-80
2022/11/26 04:30:51;;;;;;;17.03;9.00;;;;;;;;;;5002732;28;20255;-80
2022/11/26 04:33:16;;;;;;;24.27;9.63;;;;;;;;;;5003827;28;20183;-80
2022/11/26 04:35:42;;;;;;;17.67;8.73;;;;;;;;;;4998652;28;20188;-80
2022/11/26 04:38:07;;;;;;;22.67;9.40;;;;;;;;;;4998427;28;20176;-79
2022/11/26 04:40:32;;;;;;;32.07;10.27;;;;;;;;;;4983686;28;20305;-80
2022/11/26 04:42:57;;;;;;;29.07;10.30;;;;;;;;;;4989554;28;20180;-80
2022/11/26 04:45:22;;;;;;;31.00;11.03;;;;;;;;;;5002050;28;20270;-80
2022/11/26 04:47:48;;;;;;;28.10;10.70;;;;;;;;;;5007015;28;20172;-80
2022/11/26 04:50:13;;;;;;;27.00;11.23;;;;;;;;;;5008581;28;20239;-80
2022/11/26 04:52:38;;;;;;;20.57;9.60;;;;;;;;;;5005416;28;20666;-81
2022/11/26 04:55:03;;;;;;;21.40;9.60;;;;;;;;;;5003733;28;20283;-80
2022/11/26 04:57:28;;;;;;;19.13;9.10;;;;;;;;;;4997923;28;20194;-80
2022/11/26 04:59:54;;;;;;;26.80;10.13;;;;;;;;;;5002155;28;20204;-80
2022/11/26 05:02:19;;;;;;;26.13;10.67;;;;;;;;;;4987340;28;20200;-80
2022/11/26 05:04:44;;;;;;;28.17;9.40;;;;;;;;;;5011007;28;20203;-80
2022/11/26 05:07:09;;;;;;;25.03;11.20;;;;;;;;;;5005537;28;20176;-81
2022/11/26 05:09:34;;;;;;;21.23;9.93;;;;;;;;;;5012794;28;20182;-80
2022/11/26 05:12:00;;;;;;;28.80;9.20;;;;;;;;;;4989030;28;20190;-80
2022/11/26 05:14:25;;;;;;;23.53;10.77;;;;;;;;;;5007154;28;20589;-81
2022/11/26 05:16:50;;;;;;;20.83;9.77;;;;;;;;;;5005192;28;20634;-80
2022/11/26 05:19:15;;;;;;;23.97;10.37;;;;;;;;;;5009890;28;20230;-80
2022/11/26 05:21:40;;;;;;;23.83;11.20;;;;;;;;;;4983742;28;20308;-80
2022/11/26 05:24:06;;;;;;;19.13;10.93;;;;;;;;;;5002131;28;20210;-80
2022/11/26 05:26:31;;;;;;;21.27;10.40;;;;;;;;;;5005735;28;20311;-80
2022/11/26 05:28:56;;;;;;;30.17;11.87;;;;;;;;;;4986060;28;20185;-80
2022/11/26 05:31:21;;;;;;;25.40;11.50;;;;;;;;;;5002477;28;20239;-80
2022/11/26 05:33:47;;;;;;;22.57;11.57;;;;;;;;;;4979320;28;20187;-80
2022/11/26 05:36:12;;;;;;;26.73;11.67;;;;;;;;;;4996216;28;20483;-80
2022/11/26 05:38:37;;;;;;;35.90;13.07;;;;;;;;;;5003960;28;20179;-80
2022/11/26 05:41:02;;;;;;;24.80;12.00;;;;;;;;;;5008009;28;20378;-79
2022/11/26 05:43:27;;;;;;;21.97;11.73;;;;;;;;;;5010099;28;20195;-80
2022/11/26 05:45:53;;;;;;;23.03;12.30;;;;;;;;;;5008369;28;20219;-80
2022/11/26 05:48:18;;;;;;;27.97;12.53;;;;;;;;;;5005252;28;20187;-80
2022/11/26 05:50:43;;;;;;;27.23;12.13;;;;;;;;;;5002033;28;20196;-80
2022/11/26 05:53:08;;;;;;;32.53;12.13;;;;;;;;;;4997420;28;20198;-80
2022/11/26 05:55:33;;;;;;;27.67;12.60;;;;;;;;;;4994262;28;20179;-80
2022/11/26 05:57:59;;;;;;;27.17;12.17;;;;;;;;;;5004478;28;20176;-80
2022/11/26 06:00:24;;;;;;;35.60;12.57;;;;;;;;;;5005839;28;20297;-80
2022/11/26 06:02:49;;;;;;;30.87;12.77;;;;;;;;;;5002975;28;20204;-80
2022/11/26 06:05:14;;;;;;;25.67;11.60;;;;;;;;;;5001712;28;20189;-80
2022/11/26 06:07:39;;;;;;;27.33;12.77;;;;;;;;;;5003401;28;20167;-79
2022/11/26 06:10:05;;;;;;;30.87;13.03;;;;;;;;;;5000927;28;20196;-80
2022/11/26 06:12:30;;;;;;;28.73;12.13;;;;;;;;;;4978900;28;20219;-80
2022/11/26 06:14:55;;;;;;;26.50;12.13;;;;;;;;;;5010400;28;20187;-80
2022/11/26 06:17:21;;;;;;;29.30;13.67;;;;;;;;;;4980247;28;20192;-80
2022/11/26 06:19:46;;;;;;;31.30;12.97;;;;;;;;;;5012477;28;20237;-80
2022/11/26 06:22:11;;;;;;;27.97;11.83;;;;;;;;;;5005037;28;20226;-80
2022/11/26 06:24:36;;;;;;;34.57;12.37;;;;;;;;;;5000028;28;20214;-80
2022/11/26 06:27:02;;;;;;;27.57;12.50;;;;;;;;;;5005383;28;20309;-80
2022/11/26 06:29:27;;;;;;;26.33;12.60;;;;;;;;;;4988497;28;20197;-80
2022/11/26 06:31:52;;;;;;;35.70;11.50;;;;;;;;;;4980960;28;20196;-80
2022/11/26 06:34:18;;;;;;;31.07;12.63;;;;;;;;;;5004297;28;20543;-80
2022/11/26 06:36:43;;;;;;;27.43;13.20;;;;;;;;;;5003896;28;20554;-80
2022/11/26 06:39:09;;;;;;;28.40;11.20;;;;;;;;;;4981080;28;20190;-80
2022/11/26 06:41:34;;;;;;;36.53;13.37;;;;;;;;;;4982090;28;20203;-80
2022/11/26 06:44:00;;;;;;;28.20;12.90;;;;;;;;;;5007613;28;20613;-80
2022/11/26 06:46:25;;;;;;;29.47;11.87;;;;;;;;;;5004420;28;20267;-80
2022/11/26 06:48:50;;;;;;;27.40;11.67;;;;;;;;;;5010974;28;20206;-80
2022/11/26 06:51:16;;;;;;;26.93;13.50;;;;;;;;;;5009891;28;20207;-80
2022/11/26 06:53:41;;;;;;;40.67;13.37;;;;;;;;;;5003834;28;20179;-80
2022/11/26 06:56:09;;;;;;;24.83;11.50;;;;;;;;;;4984559;28;20240;-80
2022/11/26 06:58:34;;;;;;;34.47;14.40;;;;;;;;;;5002016;28;20180;-81
2022/11/26 07:00:59;;;;;;;28.80;12.73;;;;;;;;;;4998934;28;20212;-79
2022/11/26 07:03:25;;;;;;;33.07;12.27;;;;;;;;;;5004568;28;20207;-80
2022/11/26 07:05:50;;;;;;;39.33;13.47;;;;;;;;;;4976754;28;20604;-80
2022/11/26 07:08:15;;;;;;;31.97;13.40;;;;;;;;;;5003943;28;20187;-80
2022/11/26 07:10:41;;;;;;;24.20;11.90;;;;;;;;;;5003952;28;20216;-80
2022/11/26 07:13:06;;;;;;;35.23;12.13;;;;;;;;;;4994487;28;20183;-81
2022/11/26 07:15:31;;;;;;;21.70;11.47;;;;;;;;;;4998380;28;20186;-81
2022/11/26 07:17:57;;;;;;;21.93;11.20;;;;;;;;;;4999364;28;20187;-80
2022/11/26 07:20:22;;;;;;;32.60;13.40;;;;;;;;;;5006583;28;20593;-81
2022/11/26 07:22:47;;;;;;;22.53;10.87;;;;;;;;;;5002769;28;20627;-80
2022/11/26 07:25:13;;;;;;;26.33;12.47;;;;;;;;;;4987181;28;20179;-80
2022/11/26 07:27:38;;;;;;;26.63;12.00;;;;;;;;;;4980741;28;20168;-80
2022/11/26 07:30:04;;;;;;;25.40;12.10;;;;;;;;;;4998430;28;20688;-80
2022/11/26 07:32:29;;;;;;;29.43;12.90;;;;;;;;;;4997802;28;20180;-80
2022/11/26 07:34:55;;;;;;;23.40;11.47;;;;;;;;;;5004642;28;20200;-80
2022/11/26 07:37:20;;;;;;;27.97;12.30;;;;;;;;;;5006714;28;20555;-80
2022/11/26 07:39:46;;;;;;;27.40;12.00;;;;;;;;;;5001068;28;20199;-80
2022/11/26 07:42:12;;;;;;;27.47;10.87;;;;;;;;;;4982688;28;20230;-79
2022/11/26 07:44:37;;;;;;;37.40;15.93;;;;;;;;;;4996048;28;20196;-80
2022/11/26 07:47:03;;;;;;;24.77;11.70;;;;;;;;;;4986555;28;20314;-80
2022/11/26 07:49:28;;;;;;;24.50;12.00;;;;;;;;;;4986567;28;20182;-80
2022/11/26 07:51:53;;;;;;;38.93;14.00;;;;;;;;;;5000760;28;20237;-80
2022/11/26 07:54:18;;;;;;;33.43;12.90;;;;;;;;;;4999319;28;20223;-80
2022/11/26 07:56:43;;;;;;;27.27;11.03;;;;;;;;;;4998716;28;20184;-80
2022/11/26 07:59:10;;;;;;;27.63;12.17;;;;;;;;;;4983541;28;20208;-80
2022/11/26 08:01:35;;;;;;;34.23;12.73;;;;;;;;;;4991281;28;20273;-80
2022/11/26 08:04:02;;;;;;;30.27;11.57;;;;;;;;;;4988946;28;20654;-81
2022/11/26 08:06:29;;;;;;;27.77;11.03;;;;;;;;;;4976829;28;20173;-80
2022/11/26 08:08:54;;;;;;;27.87;11.50;;;;;;;;;;4982095;28;20176;-80
2022/11/26 08:11:21;;;;;;;35.90;13.60;;;;;;;;;;4981386;28;20223;-80
2022/11/26 08:13:46;;;;;;;20.10;11.07;;;;;;;;;;4998188;28;20202;-80
2022/11/26 08:16:12;;;;;;;36.10;12.67;;;;;;;;;;4999542;28;20653;-80
2022/11/26 08:18:37;;;;;;;26.77;12.53;;;;;;;;;;4986624;28;20219;-80
2022/11/26 08:21:03;;;;;;;26.63;10.60;;;;;;;;;;4993589;28;20300;-80
2022/11/26 08:23:29;;;;;;;26.03;11.27;;;;;;;;;;4980564;28;20566;-80
2022/11/26 08:25:54;;;;;;;32.00;11.97;;;;;;;;;;4982450;28;20199;-80
2022/11/26 08:28:19;;;;;;;23.37;10.90;;;;;;;;;;4999838;28;20176;-80
2022/11/26 08:30:44;;;;;;;30.30;11.33;;;;;;;;;;4979477;28;20213;-80
2022/11/26 08:33:10;;;;;;;23.87;12.17;;;;;;;;;;4998123;28;20183;-80
2022/11/26 08:35:35;;;;;;;28.50;11.37;;;;;;;;;;4988265;28;20263;-80
2022/11/26 08:38:00;;;;;;;30.70;11.33;;;;;;;;;;4999537;28;20178;-80
2022/11/26 08:40:26;;;;;;;28.73;11.13;;;;;;;;;;5002478;28;20195;-80
2022/11/26 08:42:51;;;;;;;21.80;10.97;;;;;;;;;;4984284;28;20249;-80
2022/11/26 08:45:16;;;;;;;25.47;10.70;;;;;;;;;;5008046;28;20205;-80
2022/11/26 08:47:41;;;;;;;25.00;12.07;;;;;;;;;;4988632;28;20190;-80
2022/11/26 08:50:07;;;;;;;35.67;11.23;;;;;;;;;;5005786;28;20564;-80
2022/11/26 08:52:32;;;;;;;25.83;10.63;;;;;;;;;;5000390;28;20653;-80
2022/11/26 08:54:57;;;;;;;29.53;10.53;;;;;;;;;;5009811;28;20428;-80
2022/11/26 08:57:22;;;;;;;27.00;11.27;;;;;;;;;;4985636;28;20206;-79
2022/11/26 08:59:49;;;;;;;29.03;10.53;;;;;;;;;;5002593;28;20564;-80
2022/11/26 09:02:14;;;;;;;29.47;11.50;;;;;;;;;;4980470;28;20219;-78
2022/11/26 09:04:40;;;;;;;38.30;11.43;;;;;;;;;;4996633;28;20638;-79
2022/11/26 09:07:05;;;;;;;30.97;10.37;;;;;;;;;;5016802;28;20194;-79
2022/11/26 09:09:30;;;;;;;30.63;11.03;;;;;;;;;;5010506;28;20274;-79
2022/11/26 09:11:56;;;;;;;28.67;11.17;;;;;;;;;;5005977;28;20247;-79
2022/11/26 09:14:26;;;;;;;35.60;10.40;;;;;;;;;;4988818;28;20189;-79
2022/11/26 09:16:54;;;;;;;29.40;10.37;;;;;;;;;;5011677;28;20630;-79
2022/11/26 09:19:20;;;;;;;40.73;13.10;;;;;;;;;;4990527;28;20194;-79
2022/11/26 09:21:46;;;;;;;39.50;12.43;;;;;;;;;;5003840;28;20199;-79
2022/11/26 09:24:11;;;;;;;38.40;11.00;;;;;;;;;;5000740;28;20654;-80
2022/11/26 09:26:36;;;;;;;28.13;10.60;;;;;;;;;;4999752;28;20183;-79
2022/11/26 09:29:02;;;;;;;26.33;10.03;;;;;;;;;;5005319;28;20186;-81
2022/11/26 09:31:28;;;;;;;25.57;10.30;;;;;;;;;;5016723;23;20322;-72
2022/11/26 09:33:57;;;;;;;37.77;10.90;;;;;;;;;;5017948;28;20176;-71
2022/11/26 09:36:22;;;;;;;33.67;10.63;;;;;;;;;;5006948;28;20194;-71
2022/11/26 09:38:48;;;;;;;36.23;11.83;;;;;;;;;;4997929;28;20175;-72
2022/11/26 09:41:13;;;;;;;30.70;12.43;;;;;;;;;;4994719;28;20250;-71
2022/11/26 09:43:38;;;;;;;23.20;9.60;;;;;;;;;;5011681;28;20171;-71
2022/11/26 09:46:04;;;;;;;33.43;12.90;;;;;;;;;;5018875;28;20186;-72
2022/11/26 09:48:31;;;;;;;31.00;11.33;;;;;;;;;;5011583;28;20538;-71
2022/11/26 09:51:03;;;;;;;31.33;10.77;;;;;;;;;;5011980;28;20203;-71
2022/11/26 09:53:35;;;;;;;34.60;10.47;;;;;;;;;;5009560;28;20179;-72
2022/11/26 09:56:00;;;;;;;25.87;12.70;;;;;;;;;;5012791;28;20645;-71
2022/11/26 09:58:28;;;;;;;20.03;9.93;;;;;;;;;;5005390;28;20175;-71
2022/11/26 10:00:55;;;;;;;26.43;11.53;;;;;;;;;;5009028;28;20222;-71
2022/11/26 10:03:24;;;;;;;25.13;10.10;;;;;;;;;;5013201;28;20272;-71
2022/11/26 10:05:52;;;;;;;26.63;11.10;;;;;;;;;;4992973;28;20175;-71
2022/11/26 10:08:18;;;;;;;22.57;10.50;;;;;;;;;;5008803;28;20256;-72
2022/11/26 10:10:56;;;;;;;24.60;9.00;;;;;;;;;;4994531;28;20247;-72
2022/11/26 10:13:25;;;;;;;22.53;10.90;;;;;;;;;;5008926;28;20273;-72
2022/11/26 10:16:02;;;;;;;30.60;10.40;;;;;;;;;;5009989;28;20600;-72
2022/11/26 10:18:34;;;;;;;22.27;9.90;;;;;;;;;;5009864;28;20224;-72
2022/11/26 10:21:07;;;;;;;22.97;9.63;;;;;;;;;;5005805;28;20214;-72
2022/11/26 10:23:34;;;;;;;27.17;10.27;;;;;;;;;;5011082;28;20190;-72
2022/11/26 10:26:05;;;;;;;23.47;9.63;;;;;;;;;;5012761;28;20657;-72
2022/11/26 10:28:51;;;;;;;19.53;9.93;;;;;;;;;;5012201;28;20272;-72
2022/11/26 10:31:16;;;;;;;22.13;10.03;;;;;;;;;;5009439;28;20238;-72
2022/11/26 10:33:53;;;;;;;23.40;10.80;;;;;;;;;;4997447;28;20179;-71
2022/11/26 10:36:23;;;;;;;22.90;9.53;;;;;;;;;;5011969;28;20332;-72
2022/11/26 10:38:48;;;;;;;22.00;8.20;;;;;;;;;;5012360;28;20641;-72
2022/11/26 10:41:14;;;;;;;20.70;8.67;;;;;;;;;;5003377;28;20206;-71
2022/11/26 10:43:39;;;;;;;23.90;9.23;;;;;;;;;;5009181;28;20676;-72
2022/11/26 10:46:04;;;;;;;20.50;8.90;;;;;;;;;;4997381;28;20203;-72
2022/11/26 10:48:30;;;;;;;23.37;8.10;;;;;;;;;;5010016;28;20179;-72
2022/11/26 10:50:59;;;;;;;21.43;7.20;;;;;;;;;;4990580;28;20326;-72
2022/11/26 10:53:25;;;;;;;25.10;8.90;;;;;;;;;;5010864;28;20582;-73
2022/11/26 10:55:51;;;;;;;15.93;6.90;;;;;;;;;;4993433;28;20555;-72
2022/11/26 10:58:19;;;;;;;21.17;7.10;;;;;;;;;;5002869;28;20225;-72
2022/11/26 11:00:44;;;;;;;12.90;5.90;;;;;;;;;;5005133;28;20285;-72
2022/11/26 11:03:42;;;;;;;14.70;6.27;;;;;;;;;;5011067;28;20266;-72
2022/11/26 11:06:10;;;;;;;14.20;7.63;;;;;;;;;;4973635;28;20249;-73
2022/11/26 11:08:35;;;;;;;17.20;6.43;;;;;;;;;;5007258;28;20171;-73
2022/11/26 11:11:01;;;;;;;16.80;7.13;;;;;;;;;;5017823;28;20260;-73
2022/11/26 11:13:38;;;;;;;13.33;6.17;;;;;;;;;;5012187;28;20185;-72
2022/11/26 11:16:04;;;;;;;17.43;5.97;;;;;;;;;;4987581;28;20195;-73
2022/11/26 11:18:29;;;;;;;20.80;7.80;;;;;;;;;;5010771;28;20183;-71
2022/11/26 11:20:59;;;;;;;20.00;7.70;;;;;;;;;;5003910;28;20703;-72
2022/11/26 11:23:26;;;;;;;19.43;6.20;;;;;;;;;;5014179;28;20171;-71
2022/11/26 11:26:05;;;;;;;21.97;7.83;;;;;;;;;;5011518;28;20713;-71
2022/11/26 11:28:31;;;;;;;15.37;5.37;;;;;;;;;;5010309;28;20687;-71
2022/11/26 11:31:09;;;;;;;11.52;5.70;;;;;;;;;;5012949;28;20273;-71
2022/11/26 11:33:34;;;;;;;14.80;5.53;;;;;;;;;;5007580;28;20687;-72
2022/11/26 11:36:06;;;;;;;14.23;6.00;;;;;;;;;;5010510;28;20175;-72
2022/11/26 11:38:32;;;;;;;15.25;6.00;;;;;;;;;;5011894;28;20174;-72
2022/11/26 11:41:00;;;;;;;14.10;5.05;;;;;;;;;;5010334;28;22153;-72
2022/11/26 11:43:26;;;;;;;13.50;4.57;;;;;;;;;;5009624;28;20179;-73
2022/11/26 11:45:59;;;;;;;13.20;4.75;;;;;;;;;;5009280;28;20283;-72
2022/11/26 11:48:36;;;;;;;10.38;4.32;;;;;;;;;;5010257;28;20240;-73
2022/11/26 11:51:04;;;;;;;15.80;5.78;;;;;;;;;;5009767;28;20223;-72
2022/11/26 11:53:33;;;;;;;12.52;4.97;;;;;;;;;;5007598;28;20171;-72
2022/11/26 11:56:13;;;;;;;18.92;6.32;;;;;;;;;;5009839;28;20207;-72
2022/11/26 11:58:41;;;;;;;12.75;5.53;;;;;;;;;;5003005;28;20187;-71
2022/11/26 12:01:09;;;;;;;13.18;4.95;;;;;;;;;;5011733;28;20218;-72
2022/11/26 12:03:40;;;;;;;10.73;5.00;;;;;;;;;;5010186;28;20178;-71
2022/11/26 12:06:20;;;;;;;18.85;6.00;;;;;;;;;;5010540;28;20185;-71
2022/11/26 12:08:51;;;;;;;16.45;4.93;;;;;;;;;;5014039;28;20618;-71
2022/11/26 12:11:45;;;;;;;13.25;5.28;;;;;;;;;;5015519;28;20286;-72
2022/11/26 12:14:21;;;;;;;14.85;5.05;;;;;;;;;;4998736;28;20282;-72
2022/11/26 12:16:48;;;;;;;14.53;5.10;;;;;;;;;;5016151;28;20278;-71
2022/11/26 12:19:23;;;;;;;10.63;4.18;;;;;;;;;;5014986;28;20241;-72
2022/11/26 12:21:56;;;;;;;14.05;4.65;;;;;;;;;;5011247;28;20215;-72
2022/11/26 12:24:30;;;;;;;11.95;5.15;;;;;;;;;;5017665;28;20182;-72
2022/11/26 12:27:11;;;;;;;12.73;4.30;;;;;;;;;;4996816;28;20723;-72
2022/11/26 12:29:45;;;;;;;11.43;5.10;;;;;;;;;;5014186;28;20195;-72
2022/11/26 12:32:15;;;;;;;16.00;6.00;;;;;;;;;;5014650;28;20258;-72
2022/11/26 12:34:47;;;;;;;13.70;4.18;;;;;;;;;;5013936;28;20186;-72
2022/11/26 12:37:19;;;;;;;15.10;4.68;;;;;;;;;;4997456;28;20191;-72
2022/11/26 12:39:44;;;;;;;12.55;5.38;;;;;;;;;;4996574;28;20179;-72
2022/11/26 12:42:19;;;;;;;13.45;5.47;;;;;;;;;;4995793;28;20597;-71
2022/11/26 12:44:48;;;;;;;9.48;4.40;;;;;;;;;;5013454;28;20201;-72
2022/11/26 12:47:25;;;;;;;15.98;4.82;;;;;;;;;;5014925;28;20225;-72
2022/11/26 12:49:59;;;;;;;35.70;5.67;;;;;;;;;;5003742;28;20179;-72
2022/11/26 12:52:29;;;;;;;14.63;5.73;;;;;;;;;;5009491;28;20171;-72
2022/11/26 12:55:09;;;;;;;18.27;5.93;;;;;;;;;;5013660;28;20505;-72
2022/11/26 12:57:41;;;;;;;14.10;5.15;;;;;;;;;;5012977;28;20190;-72
2022/11/26 13:00:09;;;;;;;18.80;5.68;;;;;;;;;;5012874;28;20275;-72
2022/11/26 13:02:36;;;;;;;12.43;5.05;;;;;;;;;;5012368;28;20289;-72
2022/11/26 13:05:02;;;;;;;15.63;6.72;;;;;;;;;;5010268;28;20171;-72
2022/11/26 13:07:27;;;;;;;16.95;6.10;;;;;;;;;;5017557;28;20643;-71
2022/11/26 13:09:58;;;;;;;13.13;5.40;;;;;;;;;;5014492;28;20167;-71
2022/11/26 13:12:23;;;;;;;16.35;5.60;;;;;;;;;;5011482;28;20266;-71
2022/11/26 13:15:02;;;;;;;17.00;5.50;;;;;;;;;;5012021;28;20293;-72
2022/11/26 13:17:40;;;;;;;10.35;4.53;;;;;;;;;;5018286;28;20432;-72
2022/11/26 13:20:24;;;;;;;12.48;5.63;;;;;;;;;;5012408;28;20214;-71
2022/11/26 13:23:08;;;;;;;11.50;5.03;;;;;;;;;;5010012;28;20280;-71
2022/11/26 13:25:39;;;;;;;17.40;5.28;;;;;;;;;;5013887;28;20179;-72
2022/11/26 13:28:14;;;;;;;9.57;4.97;;;;;;;;;;4992730;28;20175;-71
2022/11/26 13:30:51;;;;;;;15.15;6.70;;;;;;;;;;5010907;28;20327;-72
2022/11/26 13:33:35;;;;;;;13.23;5.20;;;;;;;;;;4996652;28;20181;-71
2022/11/26 13:36:12;;;;;;;9.30;4.55;;;;;;;;;;5014199;28;20535;-72
2022/11/26 13:38:57;;;;;;;15.98;5.10;;;;;;;;;;5014260;28;20213;-72
2022/11/26 13:41:28;;;;;;;10.63;4.93;;;;;;;;;;4994369;28;20264;-72
2022/11/26 13:43:56;;;;;;;15.80;4.65;;;;;;;;;;5013062;28;20811;-72
2022/11/26 13:46:29;;;;;;;16.30;5.78;;;;;;;;;;4997575;28;20198;-72
2022/11/26 13:48:59;;;;;;;14.40;5.90;;;;;;;;;;5008631;28;20179;-72
2022/11/26 13:51:40;;;;;;;11.00;4.53;;;;;;;;;;5011431;28;20202;-72
2022/11/26 13:54:08;;;;;;;11.02;4.65;;;;;;;;;;5015009;28;20182;-72
2022/11/26 13:56:35;;;;;;;11.73;4.30;;;;;;;;;;5019285;28;20236;-73
2022/11/26 13:59:03;;;;;;;10.45;4.30;;;;;;;;;;5010833;28;20183;-73
2022/11/26 14:01:31;;;;;;;12.00;4.47;;;;;;;;;;5009187;28;20218;-71
2022/11/26 14:03:57;;;;;;;16.30;4.95;;;;;;;;;;5016050;28;20181;-71
2022/11/26 14:06:22;;;;;;;18.23;5.90;;;;;;;;;;5010739;28;20565;-71
2022/11/26 14:08:48;;;;;;;16.38;4.97;;;;;;;;;;5009666;28;20572;-71
2022/11/26 14:11:32;;;;;;;13.15;5.03;;;;;;;;;;5013663;28;20203;-72
2022/11/26 14:14:17;;;;;;;14.07;4.30;;;;;;;;;;5006134;28;20191;-71
2022/11/26 14:17:01;;;;;;;14.13;5.70;;;;;;;;;;5002801;28;20187;-71
2022/11/26 14:19:38;;;;;;;15.73;4.25;;;;;;;;;;4992581;28;20198;-71
2022/11/26 14:22:05;;;;;;;14.55;5.05;;;;;;;;;;4980623;28;20213;-71
2022/11/26 14:24:49;;;;;;;9.57;4.68;;;;;;;;;;4995159;28;20171;-71
2022/11/26 14:27:14;;;;;;;15.77;5.43;;;;;;;;;;5009685;28;20197;-72